Flight Track Log - Related Links

Times and Time Zones

All times are in EDT time to prevent confusion due to time zone crossing. See the CNS22 flight status page for this flight to view local times or setup timezone preferences in your user account.

Time Position Orientation Groundspeed Altitude Reporting Facility
EDT Latitude Longitude Course Direction KTS MPH feet Rate Location/Type
Tue 10:52:44 AM 35.4328 -82.6344 219° Southwest 166 191 6,500  Level Atlanta Center
Tue 10:53:44 AM 35.3914 -82.6758 219° Southwest 186 214 8,000 1,300 Climbing Atlanta Center
Tue 10:54:44 AM 35.3481 -82.7222 221° Southwest 210 242 9,100 1,250 Climbing Atlanta Center
Tue 10:55:44 AM 35.3047 -82.7611 216° Southwest 213 245 10,500 1,350 Climbing Atlanta Center
Tue 10:56:44 AM 35.2614 -82.8075 221° Southwest 213 245 11,800 1,250 Climbing Atlanta Center
Tue 10:57:44 AM 35.2139 -82.8542 219° Southwest 218 251 13,000 1,100 Climbing Atlanta Center
Tue 10:58:44 AM 35.1642 -82.9056 220° Southwest 229 264 14,000 950 Climbing Atlanta Center
Tue 10:59:44 AM 35.1167 -82.9569 222° Southwest 229 264 14,900 950 Climbing Atlanta Center
Tue 11:00:44 AM 35.0672 -83.0058 219° Southwest 235 270 15,900 800 Climbing Atlanta Center
Tue 11:01:44 AM 35.0194 -83.0572 221° Southwest 235 270 16,500 300 Climbing Atlanta Center
Tue 11:02:44 AM 34.9636 -83.1111 218° Southwest 241 277 16,500  Level Atlanta Center
Tue 11:03:44 AM 34.9139 -83.1625 220° Southwest 256 295 16,500  Level Atlanta Center
Tue 11:04:44 AM 34.8581 -83.2186 220° Southwest 261 300 16,500  Level Atlanta Center
Tue 11:05:44 AM 34.7936 -83.2850 220° Southwest 267 307 16,500  Level Atlanta Center
Tue 11:06:44 AM 34.7397 -83.3386 219° Southwest 267 307 16,500  Level Atlanta Center
Tue 11:07:44 AM 34.6817 -83.3997 221° Southwest 273 314 16,500  Level Atlanta Center
Tue 11:08:44 AM 34.6297 -83.4456 216° Southwest 273 314 16,500  Level Atlanta Center
Tue 11:09:44 AM 34.5675 -83.5117 221° Southwest 278 320 16,500  Level Atlanta Center
Tue 11:10:44 AM 34.5092 -83.5725 221° Southwest 278 320 16,500  Level Atlanta Center
Tue 11:11:44 AM 34.4489 -83.6281 217° Southwest 278 320 16,500  Level Atlanta Center
Tue 11:12:44 AM 34.3928 -83.6889 222° Southwest 278 320 16,500  Level Atlanta Center
Tue 11:13:44 AM 34.3325 -83.7419 216° Southwest 278 320 16,500 -100 Level Atlanta Center
Tue 11:14:44 AM 34.2742 -83.8025 221° Southwest 278 320 16,300 -650 Descending Atlanta Center
Tue 11:15:44 AM 34.2117 -83.8606 218° Southwest 284 327 15,200 -1,350 Descending Atlanta Center
Tue 11:16:44 AM 34.1511 -83.9258 222° Southwest 284 327 13,600 -1,543 Descending Atlanta Center
Tue 11:17:29 AM 34.1000 -83.9667 213° Southwest 282 325 12,500 -1,429 Descending Atlanta TRACON
Tue 11:18:29 AM 34.0500 -84.0333 228° Southwest 274 315 11,100 -1,450 Descending Atlanta TRACON
Tue 11:19:29 AM 33.9833 -84.0833 212° Southwest 275 316 9,600 -1,450 Descending Atlanta TRACON
Tue 11:20:29 AM 33.9333 -84.1500 228° Southwest 266 306 8,200 -1,400 Descending Atlanta TRACON
Tue 11:21:29 AM 33.8667 -84.2000 212° Southwest 257 296 6,800 -1,400 Descending Atlanta TRACON
Tue 11:22:29 AM 33.8167 -84.2333 209° Southwest 245 282 5,400 -1,409 Descending Atlanta TRACON
Tue 11:23:24 AM 33.7500 -84.2167 168° South 240 276 4,100 -737 Descending Atlanta TRACON
Tue 11:24:23 AM 33.7167 -84.1667 129° Southeast 206 237 4,000 -50 Descending Atlanta TRACON
Tue 11:25:23 AM 33.6667 -84.1667 180° South 197 227 4,000  Level Atlanta TRACON
Tue 11:26:23 AM 33.6500 -84.2167 248° West 164 189 4,000 -400 Level Atlanta TRACON
Tue 11:27:23 AM 33.6500 -84.2833 270° West 181 208 3,200 -857 Descending Atlanta TRACON
Tue 11:28:29 AM 33.6500 -84.3333 270° West 161 185 2,200 -810 Descending Atlanta TRACON
Tue 11:29:29 AM 33.6500 -84.3833 270° West 121 139 1,500 -700 Descending Atlanta TRACON
Tue 11:31:00 AM 33.6333 -84.4167 220° Southwest  Level FlightAware Approximate
Tue 11:38:00 AM 33.6367 -84.4279 220° Southwest  Level Estimated
Tue 11:39:00 AM 33.6367 -84.4279 220° Southwest  Level Estimated

Login

Don't have an account? Register now (free) for customized features, flight alerts, and more!